sensor_id;sensor_type;location;lat;lon;timestamp;temperature;humidity
11577;DHT22;5844;51.496;6.788;2023-06-10T00:01:49;20.90;1.00
11577;DHT22;5844;51.496;6.788;2023-06-10T00:04:15;20.80;1.00
11577;DHT22;5844;51.496;6.788;2023-06-10T00:06:45;20.80;1.00
11577;DHT22;5844;51.496;6.788;2023-06-10T00:09:14;20.80;1.00
11577;DHT22;5844;51.496;6.788;2023-06-10T00:11:40;20.80;1.00
11577;DHT22;5844;51.496;6.788;2023-06-10T00:14:06;20.80;1.00
11577;DHT22;5844;51.496;6.788;2023-06-10T00:16:32;20.70;1.00
11577;DHT22;5844;51.496;6.788;2023-06-10T00:18:59;20.70;1.00
11577;DHT22;5844;51.496;6.788;2023-06-10T00:21:27;20.60;1.00
11577;DHT22;5844;51.496;6.788;2023-06-10T00:23:54;20.50;1.00
11577;DHT22;5844;51.496;6.788;2023-06-10T00:26:24;20.50;1.00
11577;DHT22;5844;51.496;6.788;2023-06-10T00:28:49;20.40;1.00
11577;DHT22;5844;51.496;6.788;2023-06-10T00:31:15;20.30;1.00
11577;DHT22;5844;51.496;6.788;2023-06-10T00:33:42;20.30;1.00
11577;DHT22;5844;51.496;6.788;2023-06-10T00:36:08;20.30;1.00
11577;DHT22;5844;51.496;6.788;2023-06-10T00:38:33;20.30;1.00
11577;DHT22;5844;51.496;6.788;2023-06-10T00:40:59;20.30;1.00
11577;DHT22;5844;51.496;6.788;2023-06-10T00:43:25;20.30;1.00
11577;DHT22;5844;51.496;6.788;2023-06-10T00:45:51;20.30;1.00
11577;DHT22;5844;51.496;6.788;2023-06-10T00:48:18;20.20;1.00
11577;DHT22;5844;51.496;6.788;2023-06-10T00:50:44;20.20;1.00
11577;DHT22;5844;51.496;6.788;2023-06-10T00:53:12;20.20;1.00
11577;DHT22;5844;51.496;6.788;2023-06-10T00:55:38;20.20;1.00
11577;DHT22;5844;51.496;6.788;2023-06-10T00:58:04;20.10;1.00
11577;DHT22;5844;51.496;6.788;2023-06-10T01:00:30;20.00;1.00
11577;DHT22;5844;51.496;6.788;2023-06-10T01:02:55;20.00;1.00
11577;DHT22;5844;51.496;6.788;2023-06-10T01:05:23;20.00;1.00
11577;DHT22;5844;51.496;6.788;2023-06-10T01:13:18;20.10;1.00
11577;DHT22;5844;51.496;6.788;2023-06-10T01:15:49;20.10;1.00
11577;DHT22;5844;51.496;6.788;2023-06-10T01:18:15;20.00;1.00
11577;DHT22;5844;51.496;6.788;2023-06-10T01:20:43;20.00;1.00
11577;DHT22;5844;51.496;6.788;2023-06-10T01:23:10;20.00;1.00
11577;DHT22;5844;51.496;6.788;2023-06-10T01:25:41;19.90;1.00
11577;DHT22;5844;51.496;6.788;2023-06-10T01:28:23;19.90;1.00
11577;DHT22;5844;51.496;6.788;2023-06-10T01:31:23;19.90;1.00
11577;DHT22;5844;51.496;6.788;2023-06-10T01:33:52;19.80;1.00
11577;DHT22;5844;51.496;6.788;2023-06-10T01:36:20;19.80;1.00
11577;DHT22;5844;51.496;6.788;2023-06-10T01:38:48;19.80;1.00
11577;DHT22;5844;51.496;6.788;2023-06-10T01:41:17;19.70;1.00
11577;DHT22;5844;51.496;6.788;2023-06-10T01:43:44;19.70;1.00
11577;DHT22;5844;51.496;6.788;2023-06-10T01:46:10;19.70;1.00
11577;DHT22;5844;51.496;6.788;2023-06-10T01:48:37;19.60;1.00
11577;DHT22;5844;51.496;6.788;2023-06-10T01:51:03;19.60;1.00
11577;DHT22;5844;51.496;6.788;2023-06-10T01:53:29;19.60;1.00
11577;DHT22;5844;51.496;6.788;2023-06-10T01:55:54;19.60;1.00
11577;DHT22;5844;51.496;6.788;2023-06-10T01:58:20;19.60;1.00
11577;DHT22;5844;51.496;6.788;2023-06-10T02:00:45;19.60;1.00
11577;DHT22;5844;51.496;6.788;2023-06-10T02:03:12;19.60;1.00
11577;DHT22;5844;51.496;6.788;2023-06-10T02:05:38;19.60;1.00
11577;DHT22;5844;51.496;6.788;2023-06-10T02:08:04;19.60;1.00
11577;DHT22;5844;51.496;6.788;2023-06-10T02:10:30;19.60;1.00
11577;DHT22;5844;51.496;6.788;2023-06-10T02:12:55;19.50;1.00
11577;DHT22;5844;51.496;6.788;2023-06-10T02:15:21;19.50;1.00
11577;DHT22;5844;51.496;6.788;2023-06-10T02:17:47;19.50;1.00
11577;DHT22;5844;51.496;6.788;2023-06-10T02:20:14;19.40;1.00
11577;DHT22;5844;51.496;6.788;2023-06-10T02:22:40;19.40;1.00
11577;DHT22;5844;51.496;6.788;2023-06-10T02:25:06;19.30;1.00
11577;DHT22;5844;51.496;6.788;2023-06-10T02:27:31;19.30;1.00
11577;DHT22;5844;51.496;6.788;2023-06-10T02:29:58;19.10;1.00
11577;DHT22;5844;51.496;6.788;2023-06-10T02:32:23;19.10;1.00
11577;DHT22;5844;51.496;6.788;2023-06-10T02:34:49;19.00;1.00
11577;DHT22;5844;51.496;6.788;2023-06-10T02:37:15;19.00;1.00
11577;DHT22;5844;51.496;6.788;2023-06-10T02:39:41;19.10;1.00
11577;DHT22;5844;51.496;6.788;2023-06-10T02:42:07;19.00;1.00
11577;DHT22;5844;51.496;6.788;2023-06-10T02:44:33;19.00;1.00
11577;DHT22;5844;51.496;6.788;2023-06-10T02:46:59;19.00;1.00
11577;DHT22;5844;51.496;6.788;2023-06-10T02:49:25;18.90;1.00
11577;DHT22;5844;51.496;6.788;2023-06-10T02:51:53;18.90;1.00
11577;DHT22;5844;51.496;6.788;2023-06-10T02:54:19;18.90;1.00
11577;DHT22;5844;51.496;6.788;2023-06-10T02:56:45;18.90;1.00
11577;DHT22;5844;51.496;6.788;2023-06-10T02:59:13;18.80;1.00
11577;DHT22;5844;51.496;6.788;2023-06-10T03:01:39;18.80;1.00
11577;DHT22;5844;51.496;6.788;2023-06-10T03:04:05;18.80;1.00
11577;DHT22;5844;51.496;6.788;2023-06-10T03:06:30;18.80;1.00
11577;DHT22;5844;51.496;6.788;2023-06-10T03:08:59;18.80;1.00
11577;DHT22;5844;51.496;6.788;2023-06-10T03:11:25;18.80;1.00
11577;DHT22;5844;51.496;6.788;2023-06-10T03:13:51;18.80;1.00
11577;DHT22;5844;51.496;6.788;2023-06-10T03:16:19;18.80;1.00
11577;DHT22;5844;51.496;6.788;2023-06-10T03:18:45;18.70;1.00
11577;DHT22;5844;51.496;6.788;2023-06-10T03:21:11;18.70;1.00
11577;DHT22;5844;51.496;6.788;2023-06-10T03:23:36;18.70;1.00
11577;DHT22;5844;51.496;6.788;2023-06-10T03:26:03;18.70;1.00
11577;DHT22;5844;51.496;6.788;2023-06-10T03:28:30;18.70;1.00
11577;DHT22;5844;51.496;6.788;2023-06-10T03:30:56;18.70;1.00
11577;DHT22;5844;51.496;6.788;2023-06-10T03:33:22;18.70;1.00
11577;DHT22;5844;51.496;6.788;2023-06-10T03:35:47;18.60;1.00
11577;DHT22;5844;51.496;6.788;2023-06-10T03:38:13;18.60;1.00
11577;DHT22;5844;51.496;6.788;2023-06-10T03:40:39;18.60;1.00
11577;DHT22;5844;51.496;6.788;2023-06-10T03:43:04;18.60;1.00
11577;DHT22;5844;51.496;6.788;2023-06-10T03:45:31;18.60;1.00
11577;DHT22;5844;51.496;6.788;2023-06-10T03:47:57;18.60;1.00
11577;DHT22;5844;51.496;6.788;2023-06-10T03:50:23;18.60;1.00
11577;DHT22;5844;51.496;6.788;2023-06-10T03:52:50;18.60;1.00
11577;DHT22;5844;51.496;6.788;2023-06-10T03:55:16;18.60;1.00
11577;DHT22;5844;51.496;6.788;2023-06-10T03:57:42;18.60;1.00
11577;DHT22;5844;51.496;6.788;2023-06-10T04:00:09;18.60;1.00
11577;DHT22;5844;51.496;6.788;2023-06-10T04:02:38;18.60;1.00
11577;DHT22;5844;51.496;6.788;2023-06-10T04:05:12;18.50;1.00
11577;DHT22;5844;51.496;6.788;2023-06-10T04:07:38;18.60;1.00
11577;DHT22;5844;51.496;6.788;2023-06-10T04:10:06;18.60;1.00
11577;DHT22;5844;51.496;6.788;2023-06-10T04:12:32;18.60;1.00
11577;DHT22;5844;51.496;6.788;2023-06-10T04:14:58;18.60;1.00
11577;DHT22;5844;51.496;6.788;2023-06-10T04:17:25;18.60;1.00
11577;DHT22;5844;51.496;6.788;2023-06-10T04:19:50;18.60;1.00
11577;DHT22;5844;51.496;6.788;2023-06-10T04:22:16;18.70;1.00
11577;DHT22;5844;51.496;6.788;2023-06-10T04:24:43;18.70;1.00
11577;DHT22;5844;51.496;6.788;2023-06-10T04:27:09;18.80;1.00
11577;DHT22;5844;51.496;6.788;2023-06-10T04:29:35;18.80;1.00
11577;DHT22;5844;51.496;6.788;2023-06-10T04:32:01;18.90;1.00
11577;DHT22;5844;51.496;6.788;2023-06-10T04:34:27;18.90;1.00
11577;DHT22;5844;51.496;6.788;2023-06-10T04:36:53;18.90;1.00
11577;DHT22;5844;51.496;6.788;2023-06-10T04:39:19;19.00;1.00
11577;DHT22;5844;51.496;6.788;2023-06-10T04:41:45;19.10;1.00
11577;DHT22;5844;51.496;6.788;2023-06-10T04:44:11;19.10;1.00
11577;DHT22;5844;51.496;6.788;2023-06-10T04:46:37;19.20;1.00
11577;DHT22;5844;51.496;6.788;2023-06-10T04:49:03;19.20;1.00
11577;DHT22;5844;51.496;6.788;2023-06-10T04:51:30;19.20;1.00
11577;DHT22;5844;51.496;6.788;2023-06-10T04:53:58;19.30;1.00
11577;DHT22;5844;51.496;6.788;2023-06-10T04:56:27;19.30;1.00
11577;DHT22;5844;51.496;6.788;2023-06-10T04:58:54;19.30;1.00
11577;DHT22;5844;51.496;6.788;2023-06-10T05:01:19;19.30;1.00
11577;DHT22;5844;51.496;6.788;2023-06-10T05:03:46;19.40;1.00
11577;DHT22;5844;51.496;6.788;2023-06-10T05:06:12;19.40;1.00
11577;DHT22;5844;51.496;6.788;2023-06-10T05:08:37;19.50;1.00
11577;DHT22;5844;51.496;6.788;2023-06-10T05:11:03;19.50;1.00
11577;DHT22;5844;51.496;6.788;2023-06-10T05:13:28;19.60;1.00
11577;DHT22;5844;51.496;6.788;2023-06-10T05:15:55;19.60;1.00
11577;DHT22;5844;51.496;6.788;2023-06-10T05:18:20;19.70;1.00
11577;DHT22;5844;51.496;6.788;2023-06-10T05:20:46;19.70;1.00
11577;DHT22;5844;51.496;6.788;2023-06-10T05:23:12;19.70;1.00
11577;DHT22;5844;51.496;6.788;2023-06-10T05:25:37;19.80;1.00
11577;DHT22;5844;51.496;6.788;2023-06-10T05:28:03;19.80;1.00
11577;DHT22;5844;51.496;6.788;2023-06-10T05:30:29;19.90;1.00
11577;DHT22;5844;51.496;6.788;2023-06-10T05:32:55;19.90;1.00
11577;DHT22;5844;51.496;6.788;2023-06-10T05:35:21;19.90;1.00
11577;DHT22;5844;51.496;6.788;2023-06-10T05:37:47;20.00;1.00
11577;DHT22;5844;51.496;6.788;2023-06-10T05:40:13;20.10;1.00
11577;DHT22;5844;51.496;6.788;2023-06-10T05:42:38;20.20;1.00
11577;DHT22;5844;51.496;6.788;2023-06-10T05:45:05;20.30;1.00
11577;DHT22;5844;51.496;6.788;2023-06-10T05:47:32;20.40;1.00
11577;DHT22;5844;51.496;6.788;2023-06-10T05:49:57;20.40;1.00
11577;DHT22;5844;51.496;6.788;2023-06-10T05:52:23;20.50;1.00
11577;DHT22;5844;51.496;6.788;2023-06-10T05:54:50;20.60;1.00
11577;DHT22;5844;51.496;6.788;2023-06-10T05:57:16;20.60;1.00
11577;DHT22;5844;51.496;6.788;2023-06-10T05:59:41;20.70;1.00
11577;DHT22;5844;51.496;6.788;2023-06-10T06:02:07;20.70;1.00
11577;DHT22;5844;51.496;6.788;2023-06-10T06:04:33;20.80;1.00
11577;DHT22;5844;51.496;6.788;2023-06-10T06:06:59;20.90;1.00
11577;DHT22;5844;51.496;6.788;2023-06-10T06:09:25;20.90;1.00
11577;DHT22;5844;51.496;6.788;2023-06-10T06:11:51;21.00;1.00
11577;DHT22;5844;51.496;6.788;2023-06-10T06:14:16;21.10;1.00
11577;DHT22;5844;51.496;6.788;2023-06-10T06:16:42;21.20;1.00
11577;DHT22;5844;51.496;6.788;2023-06-10T06:19:08;21.30;1.00
11577;DHT22;5844;51.496;6.788;2023-06-10T06:21:34;21.40;1.00
11577;DHT22;5844;51.496;6.788;2023-06-10T06:24:00;21.40;1.00
11577;DHT22;5844;51.496;6.788;2023-06-10T06:26:26;21.40;1.00
11577;DHT22;5844;51.496;6.788;2023-06-10T06:28:52;21.50;1.00
11577;DHT22;5844;51.496;6.788;2023-06-10T06:31:18;21.60;1.00
11577;DHT22;5844;51.496;6.788;2023-06-10T06:33:43;21.70;1.00
11577;DHT22;5844;51.496;6.788;2023-06-10T06:36:09;21.80;1.00
11577;DHT22;5844;51.496;6.788;2023-06-10T06:38:34;21.80;1.00
11577;DHT22;5844;51.496;6.788;2023-06-10T06:41:00;21.90;1.00
11577;DHT22;5844;51.496;6.788;2023-06-10T06:43:31;22.00;1.00
11577;DHT22;5844;51.496;6.788;2023-06-10T06:45:57;22.10;1.00
11577;DHT22;5844;51.496;6.788;2023-06-10T06:48:24;22.20;1.00
11577;DHT22;5844;51.496;6.788;2023-06-10T06:50:49;22.40;1.00
11577;DHT22;5844;51.496;6.788;2023-06-10T06:53:15;22.50;1.00
11577;DHT22;5844;51.496;6.788;2023-06-10T06:55:41;22.60;1.00
11577;DHT22;5844;51.496;6.788;2023-06-10T06:58:07;22.60;1.00
11577;DHT22;5844;51.496;6.788;2023-06-10T07:00:33;22.60;1.00
11577;DHT22;5844;51.496;6.788;2023-06-10T07:02:58;22.60;1.00
11577;DHT22;5844;51.496;6.788;2023-06-10T07:05:24;22.70;1.00
11577;DHT22;5844;51.496;6.788;2023-06-10T07:07:55;22.70;1.00
11577;DHT22;5844;51.496;6.788;2023-06-10T07:10:24;22.80;1.00
11577;DHT22;5844;51.496;6.788;2023-06-10T07:12:51;22.90;1.00
11577;DHT22;5844;51.496;6.788;2023-06-10T07:15:16;22.90;1.00
11577;DHT22;5844;51.496;6.788;2023-06-10T07:17:42;23.00;1.00
11577;DHT22;5844;51.496;6.788;2023-06-10T07:20:08;23.10;1.00
11577;DHT22;5844;51.496;6.788;2023-06-10T07:22:34;23.20;1.00
11577;DHT22;5844;51.496;6.788;2023-06-10T07:25:00;23.30;1.00
11577;DHT22;5844;51.496;6.788;2023-06-10T07:27:26;23.40;1.00
11577;DHT22;5844;51.496;6.788;2023-06-10T07:29:51;23.50;1.00
11577;DHT22;5844;51.496;6.788;2023-06-10T07:32:17;23.60;1.00
11577;DHT22;5844;51.496;6.788;2023-06-10T07:34:43;23.70;1.00
11577;DHT22;5844;51.496;6.788;2023-06-10T07:37:09;23.70;1.00
11577;DHT22;5844;51.496;6.788;2023-06-10T07:39:35;23.80;1.00
11577;DHT22;5844;51.496;6.788;2023-06-10T07:42:01;24.00;1.00
11577;DHT22;5844;51.496;6.788;2023-06-10T07:44:26;24.10;1.00
11577;DHT22;5844;51.496;6.788;2023-06-10T07:46:52;24.20;1.00
11577;DHT22;5844;51.496;6.788;2023-06-10T07:49:18;24.30;1.00
11577;DHT22;5844;51.496;6.788;2023-06-10T07:51:43;24.40;1.00
11577;DHT22;5844;51.496;6.788;2023-06-10T07:54:09;24.50;1.00
11577;DHT22;5844;51.496;6.788;2023-06-10T07:56:37;24.60;1.00
11577;DHT22;5844;51.496;6.788;2023-06-10T07:59:03;24.70;1.00
11577;DHT22;5844;51.496;6.788;2023-06-10T08:01:29;24.80;1.00
11577;DHT22;5844;51.496;6.788;2023-06-10T08:03:55;24.80;1.00
11577;DHT22;5844;51.496;6.788;2023-06-10T08:06:21;24.90;1.00
11577;DHT22;5844;51.496;6.788;2023-06-10T08:08:47;25.00;1.00
11577;DHT22;5844;51.496;6.788;2023-06-10T08:11:14;25.20;1.00
11577;DHT22;5844;51.496;6.788;2023-06-10T08:13:39;25.20;1.00
11577;DHT22;5844;51.496;6.788;2023-06-10T08:16:05;25.30;1.00
11577;DHT22;5844;51.496;6.788;2023-06-10T08:18:31;25.40;1.00
11577;DHT22;5844;51.496;6.788;2023-06-10T08:20:57;25.40;1.00
11577;DHT22;5844;51.496;6.788;2023-06-10T08:23:24;25.40;1.00
11577;DHT22;5844;51.496;6.788;2023-06-10T08:25:49;25.40;1.00
11577;DHT22;5844;51.496;6.788;2023-06-10T08:28:16;25.50;1.00
11577;DHT22;5844;51.496;6.788;2023-06-10T08:30:42;25.60;1.00
11577;DHT22;5844;51.496;6.788;2023-06-10T08:33:07;25.80;1.00
11577;DHT22;5844;51.496;6.788;2023-06-10T08:35:33;25.80;1.00
11577;DHT22;5844;51.496;6.788;2023-06-10T08:37:59;25.90;1.00
11577;DHT22;5844;51.496;6.788;2023-06-10T08:40:25;26.00;1.00
11577;DHT22;5844;51.496;6.788;2023-06-10T08:43:07;26.20;1.00
11577;DHT22;5844;51.496;6.788;2023-06-10T08:45:35;26.30;1.00
11577;DHT22;5844;51.496;6.788;2023-06-10T08:48:03;26.30;1.00
11577;DHT22;5844;51.496;6.788;2023-06-10T08:50:36;26.40;1.00
11577;DHT22;5844;51.496;6.788;2023-06-10T08:53:07;26.60;1.00
11577;DHT22;5844;51.496;6.788;2023-06-10T08:55:35;26.60;1.00
11577;DHT22;5844;51.496;6.788;2023-06-10T08:58:01;26.70;1.00
11577;DHT22;5844;51.496;6.788;2023-06-10T09:00:28;26.70;1.00
11577;DHT22;5844;51.496;6.788;2023-06-10T09:02:55;26.90;1.00
11577;DHT22;5844;51.496;6.788;2023-06-10T09:05:21;27.10;1.00
11577;DHT22;5844;51.496;6.788;2023-06-10T09:07:48;27.20;1.00
11577;DHT22;5844;51.496;6.788;2023-06-10T09:10:14;27.40;1.00
11577;DHT22;5844;51.496;6.788;2023-06-10T09:12:40;27.50;1.00
11577;DHT22;5844;51.496;6.788;2023-06-10T09:15:07;27.60;1.00
11577;DHT22;5844;51.496;6.788;2023-06-10T09:17:33;27.80;1.00
11577;DHT22;5844;51.496;6.788;2023-06-10T09:19:59;27.90;1.00
11577;DHT22;5844;51.496;6.788;2023-06-10T09:22:25;28.10;1.00
11577;DHT22;5844;51.496;6.788;2023-06-10T09:25:01;28.30;1.00
11577;DHT22;5844;51.496;6.788;2023-06-10T09:27:30;28.60;1.00
11577;DHT22;5844;51.496;6.788;2023-06-10T09:29:55;28.80;1.00
11577;DHT22;5844;51.496;6.788;2023-06-10T09:32:23;29.00;1.00
11577;DHT22;5844;51.496;6.788;2023-06-10T09:34:49;29.40;1.00
11577;DHT22;5844;51.496;6.788;2023-06-10T09:37:23;29.90;1.00
11577;DHT22;5844;51.496;6.788;2023-06-10T09:40:06;30.30;1.00
11577;DHT22;5844;51.496;6.788;2023-06-10T09:42:37;31.00;1.00
11577;DHT22;5844;51.496;6.788;2023-06-10T09:45:04;31.60;1.00
11577;DHT22;5844;51.496;6.788;2023-06-10T09:47:30;31.90;1.00
11577;DHT22;5844;51.496;6.788;2023-06-10T09:49:56;32.20;1.00
11577;DHT22;5844;51.496;6.788;2023-06-10T09:52:30;32.30;1.00
11577;DHT22;5844;51.496;6.788;2023-06-10T09:55:01;32.60;1.00
11577;DHT22;5844;51.496;6.788;2023-06-10T09:57:31;33.00;1.00
11577;DHT22;5844;51.496;6.788;2023-06-10T10:00:05;33.20;1.00
11577;DHT22;5844;51.496;6.788;2023-06-10T10:02:31;33.50;1.00
11577;DHT22;5844;51.496;6.788;2023-06-10T10:05:03;33.60;1.00
11577;DHT22;5844;51.496;6.788;2023-06-10T10:07:29;33.90;1.00
11577;DHT22;5844;51.496;6.788;2023-06-10T10:09:56;34.30;1.00
11577;DHT22;5844;51.496;6.788;2023-06-10T10:12:21;34.80;1.00
11577;DHT22;5844;51.496;6.788;2023-06-10T10:14:49;34.80;1.00
11577;DHT22;5844;51.496;6.788;2023-06-10T10:17:16;34.90;1.00
11577;DHT22;5844;51.496;6.788;2023-06-10T10:19:55;34.90;1.00
11577;DHT22;5844;51.496;6.788;2023-06-10T10:22:26;35.20;1.00
11577;DHT22;5844;51.496;6.788;2023-06-10T10:25:01;35.30;1.00
11577;DHT22;5844;51.496;6.788;2023-06-10T10:27:28;35.30;1.00
11577;DHT22;5844;51.496;6.788;2023-06-10T10:29:58;35.60;1.00
11577;DHT22;5844;51.496;6.788;2023-06-10T10:32:37;35.90;1.00
11577;DHT22;5844;51.496;6.788;2023-06-10T10:35:08;36.00;1.00
11577;DHT22;5844;51.496;6.788;2023-06-10T10:37:35;36.00;1.00
11577;DHT22;5844;51.496;6.788;2023-06-10T10:40:02;36.10;1.00
11577;DHT22;5844;51.496;6.788;2023-06-10T10:42:30;36.50;1.00
11577;DHT22;5844;51.496;6.788;2023-06-10T10:44:56;36.90;1.00
11577;DHT22;5844;51.496;6.788;2023-06-10T10:47:22;36.90;1.00
11577;DHT22;5844;51.496;6.788;2023-06-10T10:49:50;36.80;1.00
11577;DHT22;5844;51.496;6.788;2023-06-10T10:52:17;36.70;1.00
11577;DHT22;5844;51.496;6.788;2023-06-10T10:54:45;36.90;1.00
11577;DHT22;5844;51.496;6.788;2023-06-10T10:57:21;37.00;1.00
11577;DHT22;5844;51.496;6.788;2023-06-10T10:59:53;37.20;1.00
11577;DHT22;5844;51.496;6.788;2023-06-10T11:05:01;37.40;1.00
11577;DHT22;5844;51.496;6.788;2023-06-10T11:07:30;37.60;1.00
11577;DHT22;5844;51.496;6.788;2023-06-10T11:12:50;37.80;1.00
11577;DHT22;5844;51.496;6.788;2023-06-10T11:15:24;38.00;1.00
11577;DHT22;5844;51.496;6.788;2023-06-10T11:29:01;38.50;1.00
11577;DHT22;5844;51.496;6.788;2023-06-10T11:31:34;38.80;1.00
11577;DHT22;5844;51.496;6.788;2023-06-10T11:34:04;39.20;1.00
11577;DHT22;5844;51.496;6.788;2023-06-10T11:36:33;39.50;1.00
11577;DHT22;5844;51.496;6.788;2023-06-10T11:39:01;39.40;1.00
11577;DHT22;5844;51.496;6.788;2023-06-10T11:41:28;39.60;1.00
11577;DHT22;5844;51.496;6.788;2023-06-10T11:43:55;39.50;1.00
11577;DHT22;5844;51.496;6.788;2023-06-10T11:46:24;39.00;1.00
11577;DHT22;5844;51.496;6.788;2023-06-10T11:48:57;39.40;1.00
11577;DHT22;5844;51.496;6.788;2023-06-10T11:51:26;39.80;1.00
11577;DHT22;5844;51.496;6.788;2023-06-10T11:53:52;40.00;1.00
11577;DHT22;5844;51.496;6.788;2023-06-10T11:56:28;40.20;1.00
11577;DHT22;5844;51.496;6.788;2023-06-10T11:59:03;40.60;1.00
11577;DHT22;5844;51.496;6.788;2023-06-10T12:01:36;40.40;1.00
11577;DHT22;5844;51.496;6.788;2023-06-10T12:04:08;40.10;1.00
11577;DHT22;5844;51.496;6.788;2023-06-10T12:06:45;40.50;1.00
11577;DHT22;5844;51.496;6.788;2023-06-10T12:09:22;40.80;1.00
11577;DHT22;5844;51.496;6.788;2023-06-10T12:11:58;40.90;1.00
11577;DHT22;5844;51.496;6.788;2023-06-10T12:14:56;40.80;1.00
11577;DHT22;5844;51.496;6.788;2023-06-10T12:19:58;41.30;1.00
11577;DHT22;5844;51.496;6.788;2023-06-10T12:22:25;41.50;1.00
11577;DHT22;5844;51.496;6.788;2023-06-10T12:27:25;41.50;1.00
11577;DHT22;5844;51.496;6.788;2023-06-10T12:29:51;41.50;1.00
11577;DHT22;5844;51.496;6.788;2023-06-10T12:32:19;41.50;1.00
11577;DHT22;5844;51.496;6.788;2023-06-10T12:34:48;41.60;1.00
11577;DHT22;5844;51.496;6.788;2023-06-10T12:37:14;41.40;1.00
11577;DHT22;5844;51.496;6.788;2023-06-10T12:39:41;41.60;1.00
11577;DHT22;5844;51.496;6.788;2023-06-10T12:42:08;41.90;1.00
11577;DHT22;5844;51.496;6.788;2023-06-10T12:44:39;42.20;1.00
11577;DHT22;5844;51.496;6.788;2023-06-10T12:47:08;41.90;1.00
11577;DHT22;5844;51.496;6.788;2023-06-10T12:49:36;41.70;1.00
11577;DHT22;5844;51.496;6.788;2023-06-10T12:52:03;42.10;1.00
11577;DHT22;5844;51.496;6.788;2023-06-10T12:54:29;42.00;1.00
11577;DHT22;5844;51.496;6.788;2023-06-10T12:56:54;41.10;1.00
11577;DHT22;5844;51.496;6.788;2023-06-10T12:59:20;40.80;1.00
11577;DHT22;5844;51.496;6.788;2023-06-10T13:01:52;41.40;1.00
11577;DHT22;5844;51.496;6.788;2023-06-10T13:04:18;41.80;1.00
11577;DHT22;5844;51.496;6.788;2023-06-10T13:06:47;42.20;1.00
11577;DHT22;5844;51.496;6.788;2023-06-10T13:09:13;42.40;1.00
11577;DHT22;5844;51.496;6.788;2023-06-10T13:11:39;42.10;1.00
11577;DHT22;5844;51.496;6.788;2023-06-10T13:14:06;41.50;1.00
11577;DHT22;5844;51.496;6.788;2023-06-10T13:16:32;41.20;1.00
11577;DHT22;5844;51.496;6.788;2023-06-10T13:18:58;41.60;1.00
11577;DHT22;5844;51.496;6.788;2023-06-10T13:21:24;41.90;1.00
11577;DHT22;5844;51.496;6.788;2023-06-10T13:23:50;41.40;1.00
11577;DHT22;5844;51.496;6.788;2023-06-10T13:26:17;39.70;1.00
11577;DHT22;5844;51.496;6.788;2023-06-10T13:28:43;40.00;1.00
11577;DHT22;5844;51.496;6.788;2023-06-10T13:31:09;40.90;1.00
11577;DHT22;5844;51.496;6.788;2023-06-10T13:33:35;41.60;1.00
11577;DHT22;5844;51.496;6.788;2023-06-10T13:36:00;41.80;1.00
11577;DHT22;5844;51.496;6.788;2023-06-10T13:38:26;40.40;1.00
11577;DHT22;5844;51.496;6.788;2023-06-10T13:40:51;38.90;1.00
11577;DHT22;5844;51.496;6.788;2023-06-10T13:43:17;39.20;1.00
11577;DHT22;5844;51.496;6.788;2023-06-10T13:45:43;40.10;1.00
11577;DHT22;5844;51.496;6.788;2023-06-10T13:48:08;40.40;1.00
11577;DHT22;5844;51.496;6.788;2023-06-10T13:50:34;40.50;1.00
11577;DHT22;5844;51.496;6.788;2023-06-10T13:53:00;40.80;1.00
11577;DHT22;5844;51.496;6.788;2023-06-10T13:55:25;41.50;1.00
11577;DHT22;5844;51.496;6.788;2023-06-10T13:57:51;41.70;1.00
11577;DHT22;5844;51.496;6.788;2023-06-10T14:00:17;41.90;1.00
11577;DHT22;5844;51.496;6.788;2023-06-10T14:02:43;41.50;1.00
11577;DHT22;5844;51.496;6.788;2023-06-10T14:05:08;41.70;1.00
11577;DHT22;5844;51.496;6.788;2023-06-10T14:07:34;42.10;1.00
11577;DHT22;5844;51.496;6.788;2023-06-10T14:10:00;42.20;1.00
11577;DHT22;5844;51.496;6.788;2023-06-10T14:12:26;42.50;1.00
11577;DHT22;5844;51.496;6.788;2023-06-10T14:14:52;43.20;1.00
11577;DHT22;5844;51.496;6.788;2023-06-10T14:17:17;42.50;1.00
11577;DHT22;5844;51.496;6.788;2023-06-10T14:19:43;41.40;1.00
11577;DHT22;5844;51.496;6.788;2023-06-10T14:22:08;41.60;1.00
11577;DHT22;5844;51.496;6.788;2023-06-10T14:24:35;42.20;1.00
11577;DHT22;5844;51.496;6.788;2023-06-10T14:27:01;42.30;1.00
11577;DHT22;5844;51.496;6.788;2023-06-10T14:29:27;41.50;1.00
11577;DHT22;5844;51.496;6.788;2023-06-10T14:31:54;40.70;1.00
11577;DHT22;5844;51.496;6.788;2023-06-10T14:34:20;41.00;1.00
11577;DHT22;5844;51.496;6.788;2023-06-10T14:36:46;41.60;1.00
11577;DHT22;5844;51.496;6.788;2023-06-10T14:39:11;41.50;1.00
11577;DHT22;5844;51.496;6.788;2023-06-10T14:41:37;42.30;1.00
11577;DHT22;5844;51.496;6.788;2023-06-10T14:44:03;43.00;1.00
11577;DHT22;5844;51.496;6.788;2023-06-10T14:46:28;43.10;1.00
11577;DHT22;5844;51.496;6.788;2023-06-10T14:48:54;43.10;1.00
11577;DHT22;5844;51.496;6.788;2023-06-10T14:51:19;43.10;1.00
11577;DHT22;5844;51.496;6.788;2023-06-10T14:53:46;42.40;1.00
11577;DHT22;5844;51.496;6.788;2023-06-10T14:56:12;41.00;1.00
11577;DHT22;5844;51.496;6.788;2023-06-10T14:58:38;38.90;1.00
11577;DHT22;5844;51.496;6.788;2023-06-10T15:01:03;37.40;1.00
11577;DHT22;5844;51.496;6.788;2023-06-10T15:03:29;36.80;1.00
11577;DHT22;5844;51.496;6.788;2023-06-10T15:05:55;37.90;1.00
11577;DHT22;5844;51.496;6.788;2023-06-10T15:08:20;39.30;1.00
11577;DHT22;5844;51.496;6.788;2023-06-10T15:10:46;40.70;1.00
11577;DHT22;5844;51.496;6.788;2023-06-10T15:13:13;41.80;1.00
11577;DHT22;5844;51.496;6.788;2023-06-10T15:15:39;41.70;1.00
11577;DHT22;5844;51.496;6.788;2023-06-10T15:18:05;40.70;1.00
11577;DHT22;5844;51.496;6.788;2023-06-10T15:20:30;40.60;1.00
11577;DHT22;5844;51.496;6.788;2023-06-10T15:22:56;40.20;1.00
11577;DHT22;5844;51.496;6.788;2023-06-10T15:25:22;38.50;1.00
11577;DHT22;5844;51.496;6.788;2023-06-10T15:27:47;37.70;1.00
11577;DHT22;5844;51.496;6.788;2023-06-10T15:30:13;37.40;1.00
11577;DHT22;5844;51.496;6.788;2023-06-10T15:32:39;38.90;1.00
11577;DHT22;5844;51.496;6.788;2023-06-10T15:35:05;39.40;1.00
11577;DHT22;5844;51.496;6.788;2023-06-10T15:37:31;39.00;1.00
11577;DHT22;5844;51.496;6.788;2023-06-10T15:39:56;38.90;1.00
11577;DHT22;5844;51.496;6.788;2023-06-10T15:42:22;39.20;1.00
11577;DHT22;5844;51.496;6.788;2023-06-10T15:44:49;38.20;1.00
11577;DHT22;5844;51.496;6.788;2023-06-10T15:47:14;37.00;1.00
11577;DHT22;5844;51.496;6.788;2023-06-10T15:49:41;35.70;1.00
11577;DHT22;5844;51.496;6.788;2023-06-10T15:52:06;36.00;1.00
11577;DHT22;5844;51.496;6.788;2023-06-10T15:54:32;36.80;1.00
11577;DHT22;5844;51.496;6.788;2023-06-10T15:56:57;36.50;1.00
11577;DHT22;5844;51.496;6.788;2023-06-10T15:59:23;35.50;1.00
11577;DHT22;5844;51.496;6.788;2023-06-10T16:01:49;35.00;1.00
11577;DHT22;5844;51.496;6.788;2023-06-10T16:04:14;35.80;1.00
11577;DHT22;5844;51.496;6.788;2023-06-10T16:06:40;36.00;1.00
11577;DHT22;5844;51.496;6.788;2023-06-10T16:09:06;35.20;1.00
11577;DHT22;5844;51.496;6.788;2023-06-10T16:11:32;35.70;1.00
11577;DHT22;5844;51.496;6.788;2023-06-10T16:13:57;36.60;1.00
11577;DHT22;5844;51.496;6.788;2023-06-10T16:16:23;37.40;1.00
11577;DHT22;5844;51.496;6.788;2023-06-10T16:18:49;38.10;1.00
11577;DHT22;5844;51.496;6.788;2023-06-10T16:21:15;38.30;1.00
11577;DHT22;5844;51.496;6.788;2023-06-10T16:23:40;37.90;1.00
11577;DHT22;5844;51.496;6.788;2023-06-10T16:26:06;38.10;1.00
11577;DHT22;5844;51.496;6.788;2023-06-10T16:28:31;38.30;1.00